sensor_id;sensor_type;location;lat;lon;timestamp;pressure;altitude;pressure_sealevel;temperature;humidity
28630;BME280;15817;42.130;24.762;2023-05-12T00:00:54;100345.88;;;13.02;83.58
28630;BME280;15817;42.130;24.762;2023-05-12T00:03:42;100361.88;;;13.03;83.42
28630;BME280;15817;42.130;24.762;2023-05-12T00:06:34;100352.13;;;12.99;83.71
28630;BME280;15817;42.130;24.762;2023-05-12T00:09:09;100358.28;;;13.04;83.88
28630;BME280;15817;42.130;24.762;2023-05-12T00:11:39;100346.78;;;13.01;83.81
28630;BME280;15817;42.130;24.762;2023-05-12T00:14:07;100350.34;;;12.97;83.89
28630;BME280;15817;42.130;24.762;2023-05-12T00:16:33;100344.13;;;12.95;83.84
28630;BME280;15817;42.130;24.762;2023-05-12T00:18:59;100346.78;;;12.98;83.81
28630;BME280;15817;42.130;24.762;2023-05-12T00:21:25;100351.25;;;12.97;83.97
28630;BME280;15817;42.130;24.762;2023-05-12T00:23:56;100353.91;;;12.94;84.22
28630;BME280;15817;42.130;24.762;2023-05-12T00:26:36;100356.59;;;12.93;84.09
28630;BME280;15817;42.130;24.762;2023-05-12T00:29:33;100345.97;;;12.90;84.26
28630;BME280;15817;42.130;24.762;2023-05-12T00:32:00;100352.13;;;12.95;84.09
28630;BME280;15817;42.130;24.762;2023-05-12T00:34:26;100345.03;;;12.94;84.08
28630;BME280;15817;42.130;24.762;2023-05-12T00:36:53;100355.69;;;12.94;84.25
28630;BME280;15817;42.130;24.762;2023-05-12T00:39:21;100360.16;;;12.93;84.25
28630;BME280;15817;42.130;24.762;2023-05-12T00:41:51;100348.66;;;12.82;84.61
28630;BME280;15817;42.130;24.762;2023-05-12T00:44:18;100354.91;;;12.83;84.81
28630;BME280;15817;42.130;24.762;2023-05-12T00:46:44;100354.03;;;12.81;84.46
28630;BME280;15817;42.130;24.762;2023-05-12T00:49:11;100354.03;;;12.81;84.50
28630;BME280;15817;42.130;24.762;2023-05-12T00:51:37;100352.22;;;12.83;84.40
28630;BME280;15817;42.130;24.762;2023-05-12T00:54:04;100371.78;;;12.88;84.67
28630;BME280;15817;42.130;24.762;2023-05-12T00:56:30;100362.91;;;12.86;84.88
28630;BME280;15817;42.130;24.762;2023-05-12T00:59:07;100360.31;;;12.75;85.40
28630;BME280;15817;42.130;24.762;2023-05-12T01:01:39;100359.44;;;12.73;85.65
28630;BME280;15817;42.130;24.762;2023-05-12T01:04:06;100370.97;;;12.77;85.65
28630;BME280;15817;42.130;24.762;2023-05-12T01:06:53;100369.19;;;12.77;85.58
28630;BME280;15817;42.130;24.762;2023-05-12T01:09:23;100358.53;;;12.76;85.41
28630;BME280;15817;42.130;24.762;2023-05-12T01:11:52;100370.03;;;12.82;85.49
28630;BME280;15817;42.130;24.762;2023-05-12T01:14:20;100361.19;;;12.76;85.04
28630;BME280;15817;42.130;24.762;2023-05-12T01:16:52;100363.84;;;12.80;85.46
28630;BME280;15817;42.130;24.762;2023-05-12T01:19:39;100366.50;;;12.80;85.31
28630;BME280;15817;42.130;24.762;2023-05-12T01:22:10;100355.88;;;12.74;85.11
28630;BME280;15817;42.130;24.762;2023-05-12T01:24:49;100360.31;;;12.74;85.19
28630;BME280;15817;42.130;24.762;2023-05-12T01:27:19;100364.75;;;12.73;85.23
28630;BME280;15817;42.130;24.762;2023-05-12T01:29:48;100366.59;;;12.66;85.45
28630;BME280;15817;42.130;24.762;2023-05-12T01:32:17;100371.03;;;12.69;85.64
28630;BME280;15817;42.130;24.762;2023-05-12T01:34:46;100359.47;;;12.65;85.64
28630;BME280;15817;42.130;24.762;2023-05-12T01:37:12;100352.38;;;12.63;85.45
28630;BME280;15817;42.130;24.762;2023-05-12T01:39:40;100359.50;;;12.62;85.66
28630;BME280;15817;42.130;24.762;2023-05-12T01:42:14;100360.44;;;12.52;85.66
28630;BME280;15817;42.130;24.762;2023-05-12T01:44:40;100353.41;;;12.45;86.09
28630;BME280;15817;42.130;24.762;2023-05-12T01:47:11;100359.56;;;12.55;86.34
28630;BME280;15817;42.130;24.762;2023-05-12T01:49:43;100349.78;;;12.54;86.07
28630;BME280;15817;42.130;24.762;2023-05-12T01:52:13;100356.00;;;12.57;85.87
28630;BME280;15817;42.130;24.762;2023-05-12T01:54:39;100357.78;;;12.57;85.87
28630;BME280;15817;42.130;24.762;2023-05-12T01:57:09;100356.91;;;12.50;86.14
28630;BME280;15817;42.130;24.762;2023-05-12T01:59:37;100356.00;;;12.51;86.49
28630;BME280;15817;42.130;24.762;2023-05-12T02:02:05;100349.78;;;12.51;86.09
28630;BME280;15817;42.130;24.762;2023-05-12T02:04:32;100348.00;;;12.50;86.11
28630;BME280;15817;42.130;24.762;2023-05-12T02:06:59;100357.78;;;12.49;86.25
28630;BME280;15817;42.130;24.762;2023-05-12T02:09:28;100349.78;;;12.49;86.27
28630;BME280;15817;42.130;24.762;2023-05-12T02:12:03;100353.34;;;12.51;86.27
28630;BME280;15817;42.130;24.762;2023-05-12T02:14:29;100346.22;;;12.52;86.06
28630;BME280;15817;42.130;24.762;2023-05-12T02:16:57;100348.00;;;12.50;86.09
28630;BME280;15817;42.130;24.762;2023-05-12T02:19:24;100346.22;;;12.50;85.86
28630;BME280;15817;42.130;24.762;2023-05-12T02:21:52;100347.13;;;12.46;85.97
28630;BME280;15817;42.130;24.762;2023-05-12T02:24:20;100340.06;;;12.45;85.71
28630;BME280;15817;42.130;24.762;2023-05-12T02:26:46;100362.25;;;12.49;85.88
28630;BME280;15817;42.130;24.762;2023-05-12T02:29:12;100348.06;;;12.42;86.02
28630;BME280;15817;42.130;24.762;2023-05-12T02:31:38;100347.19;;;12.43;86.27
28630;BME280;15817;42.130;24.762;2023-05-12T02:34:14;100348.91;;;12.49;86.49
28630;BME280;15817;42.130;24.762;2023-05-12T02:36:40;100350.69;;;12.50;86.67
28630;BME280;15817;42.130;24.762;2023-05-12T02:39:06;100353.34;;;12.50;86.47
28630;BME280;15817;42.130;24.762;2023-05-12T02:41:32;100349.84;;;12.45;86.69
28630;BME280;15817;42.130;24.762;2023-05-12T02:43:58;100340.94;;;12.46;86.88
28630;BME280;15817;42.130;24.762;2023-05-12T02:46:28;100351.56;;;12.50;86.59
28630;BME280;15817;42.130;24.762;2023-05-12T02:48:54;100342.69;;;12.47;86.70
28630;BME280;15817;42.130;24.762;2023-05-12T02:51:20;100356.94;;;12.44;87.02
28630;BME280;15817;42.130;24.762;2023-05-12T02:53:48;100348.97;;;12.41;87.10
28630;BME280;15817;42.130;24.762;2023-05-12T02:56:16;100346.28;;;12.41;87.27
28630;BME280;15817;42.130;24.762;2023-05-12T02:58:42;100350.75;;;12.42;87.22
28630;BME280;15817;42.130;24.762;2023-05-12T03:01:08;100359.63;;;12.44;87.40
28630;BME280;15817;42.130;24.762;2023-05-12T03:03:34;100364.97;;;12.44;87.21
28630;BME280;15817;42.130;24.762;2023-05-12T03:06:03;100371.19;;;12.43;87.30
28630;BME280;15817;42.130;24.762;2023-05-12T03:08:29;100363.19;;;12.39;87.47
28630;BME280;15817;42.130;24.762;2023-05-12T03:10:55;100369.41;;;12.41;87.71
28630;BME280;15817;42.130;24.762;2023-05-12T03:13:21;100369.41;;;12.39;87.87
28630;BME280;15817;42.130;24.762;2023-05-12T03:15:51;100375.63;;;12.43;87.81
28630;BME280;15817;42.130;24.762;2023-05-12T03:18:31;100374.75;;;12.42;87.80
28630;BME280;15817;42.130;24.762;2023-05-12T03:20:57;100380.97;;;12.43;87.62
28630;BME280;15817;42.130;24.762;2023-05-12T03:23:26;100379.19;;;12.39;87.89
28630;BME280;15817;42.130;24.762;2023-05-12T03:25:53;100380.97;;;12.35;87.94
28630;BME280;15817;42.130;24.762;2023-05-12T03:28:19;100371.19;;;12.37;88.26
28630;BME280;15817;42.130;24.762;2023-05-12T03:30:48;100388.09;;;12.38;87.69
28630;BME280;15817;42.130;24.762;2023-05-12T03:33:14;100383.69;;;12.32;87.92
28630;BME280;15817;42.130;24.762;2023-05-12T03:35:40;100397.88;;;12.39;88.44
28630;BME280;15817;42.130;24.762;2023-05-12T03:38:19;100382.75;;;12.38;88.11
28630;BME280;15817;42.130;24.762;2023-05-12T03:40:48;100390.75;;;12.41;88.36
28630;BME280;15817;42.130;24.762;2023-05-12T03:43:18;100396.09;;;12.38;87.95
28630;BME280;15817;42.130;24.762;2023-05-12T03:45:46;100389.00;;;12.35;87.88
28630;BME280;15817;42.130;24.762;2023-05-12T03:48:15;100388.13;;;12.33;87.74
28630;BME280;15817;42.130;24.762;2023-05-12T03:50:54;100397.88;;;12.39;87.76
28630;BME280;15817;42.130;24.762;2023-05-12T03:53:24;100404.09;;;12.38;87.76
28630;BME280;15817;42.130;24.762;2023-05-12T03:55:52;100411.22;;;12.42;87.33
28630;BME280;15817;42.130;24.762;2023-05-12T03:58:18;100409.44;;;12.41;87.24
28630;BME280;15817;42.130;24.762;2023-05-12T04:00:57;100406.75;;;12.42;87.21
28630;BME280;15817;42.130;24.762;2023-05-12T04:03:51;100415.66;;;12.40;86.82
28630;BME280;15817;42.130;24.762;2023-05-12T04:06:20;100410.31;;;12.43;87.05
28630;BME280;15817;42.130;24.762;2023-05-12T04:08:46;100408.53;;;12.43;87.17
28630;BME280;15817;42.130;24.762;2023-05-12T04:11:18;100414.72;;;12.47;87.14
28630;BME280;15817;42.130;24.762;2023-05-12T04:14:02;100410.31;;;12.44;87.41
28630;BME280;15817;42.130;24.762;2023-05-12T04:20:33;100414.72;;;12.48;87.43
28630;BME280;15817;42.130;24.762;2023-05-12T04:26:50;100417.44;;;12.45;87.52
28630;BME280;15817;42.130;24.762;2023-05-12T04:29:24;100422.72;;;12.50;87.60
28630;BME280;15817;42.130;24.762;2023-05-12T04:32:01;100412.09;;;12.44;87.34
28630;BME280;15817;42.130;24.762;2023-05-12T04:39:12;100397.81;;;12.55;87.20
28630;BME280;15817;42.130;24.762;2023-05-12T04:42:08;100395.13;;;12.54;87.62
28630;BME280;15817;42.130;24.762;2023-05-12T04:44:50;100403.13;;;12.55;88.85
28630;BME280;15817;42.130;24.762;2023-05-12T04:47:36;100403.09;;;12.60;88.34
28630;BME280;15817;42.130;24.762;2023-05-12T04:50:11;100398.69;;;12.56;87.53
28630;BME280;15817;42.130;24.762;2023-05-12T04:52:38;100391.56;;;12.55;88.19
28630;BME280;15817;42.130;24.762;2023-05-12T04:56:06;100398.56;;;12.73;89.18
28630;BME280;15817;42.130;24.762;2023-05-12T05:01:56;100410.19;;;12.62;88.42
28630;BME280;15817;42.130;24.762;2023-05-12T05:04:32;100405.75;;;12.63;88.50
28630;BME280;15817;42.130;24.762;2023-05-12T05:07:02;100406.63;;;12.65;88.81
28630;BME280;15817;42.130;24.762;2023-05-12T05:09:41;100405.75;;;12.61;88.73
28630;BME280;15817;42.130;24.762;2023-05-12T05:12:25;100414.66;;;12.62;89.36
28630;BME280;15817;42.130;24.762;2023-05-12T05:15:01;100413.75;;;12.60;90.47
28630;BME280;15817;42.130;24.762;2023-05-12T05:17:47;100403.16;;;12.49;89.57
28630;BME280;15817;42.130;24.762;2023-05-12T05:20:17;100395.19;;;12.39;91.69
28630;BME280;15817;42.130;24.762;2023-05-12T05:22:46;100413.00;;;12.37;91.72
28630;BME280;15817;42.130;24.762;2023-05-12T05:25:13;100411.22;;;12.39;92.55
28630;BME280;15817;42.130;24.762;2023-05-12T05:27:39;100410.31;;;12.44;93.38
28630;BME280;15817;42.130;24.762;2023-05-12T05:30:09;100413.81;;;12.48;93.51
28630;BME280;15817;42.130;24.762;2023-05-12T05:32:39;100417.38;;;12.54;93.95
28630;BME280;15817;42.130;24.762;2023-05-12T05:35:30;100419.16;;;12.55;93.68
28630;BME280;15817;42.130;24.762;2023-05-12T05:38:23;100416.50;;;12.49;92.85
28630;BME280;15817;42.130;24.762;2023-05-12T05:40:51;100415.56;;;12.58;92.97
28630;BME280;15817;42.130;24.762;2023-05-12T05:43:20;100417.38;;;12.57;92.37
28630;BME280;15817;42.130;24.762;2023-05-12T05:45:49;100414.66;;;12.63;91.82
28630;BME280;15817;42.130;24.762;2023-05-12T05:48:17;100419.09;;;12.64;91.09
28630;BME280;15817;42.130;24.762;2023-05-12T05:50:45;100429.75;;;12.69;91.38
28630;BME280;15817;42.130;24.762;2023-05-12T05:53:20;100411.06;;;12.67;90.99
28630;BME280;15817;42.130;24.762;2023-05-12T05:55:50;100409.31;;;12.62;90.80
28630;BME280;15817;42.130;24.762;2023-05-12T05:58:18;100405.75;;;12.60;91.21
28630;BME280;15817;42.130;24.762;2023-05-12T06:00:48;100411.03;;;12.72;91.62
28630;BME280;15817;42.130;24.762;2023-05-12T06:03:20;100421.69;;;12.78;90.93
28630;BME280;15817;42.130;24.762;2023-05-12T06:05:48;100413.69;;;12.75;90.28
28630;BME280;15817;42.130;24.762;2023-05-12T06:08:22;100412.88;;;12.65;89.38
28630;BME280;15817;42.130;24.762;2023-05-12T06:10:47;100422.66;;;12.65;88.57
28630;BME280;15817;42.130;24.762;2023-05-12T06:13:14;100429.75;;;12.69;89.11
28630;BME280;15817;42.130;24.762;2023-05-12T06:15:53;100427.03;;;12.80;89.03
28630;BME280;15817;42.130;24.762;2023-05-12T06:18:32;100428.75;;;12.87;88.69
28630;BME280;15817;42.130;24.762;2023-05-12T06:21:03;100434.97;;;12.87;88.24
28630;BME280;15817;42.130;24.762;2023-05-12T06:23:29;100435.03;;;12.78;88.85
28630;BME280;15817;42.130;24.762;2023-05-12T06:25:55;100431.41;;;12.85;88.99
28630;BME280;15817;42.130;24.762;2023-05-12T06:28:21;100439.38;;;12.93;88.94
28630;BME280;15817;42.130;24.762;2023-05-12T06:30:47;100438.44;;;13.03;88.89
28630;BME280;15817;42.130;24.762;2023-05-12T06:33:15;100433.94;;;13.14;89.33
28630;BME280;15817;42.130;24.762;2023-05-12T06:35:47;100433.91;;;13.16;87.97
28630;BME280;15817;42.130;24.762;2023-05-12T06:38:13;100432.97;;;13.24;88.70
28630;BME280;15817;42.130;24.762;2023-05-12T06:40:41;100435.59;;;13.29;88.46
28630;BME280;15817;42.130;24.762;2023-05-12T06:43:10;100436.47;;;13.29;88.16
28630;BME280;15817;42.130;24.762;2023-05-12T06:45:42;100435.66;;;13.23;87.44
28630;BME280;15817;42.130;24.762;2023-05-12T06:48:09;100432.03;;;13.27;87.92
28630;BME280;15817;42.130;24.762;2023-05-12T06:50:37;100432.00;;;13.31;87.39
28630;BME280;15817;42.130;24.762;2023-05-12T06:56:21;100425.69;;;13.43;87.00
28630;BME280;15817;42.130;24.762;2023-05-12T06:58:54;100428.38;;;13.38;85.38
28630;BME280;15817;42.130;24.762;2023-05-12T07:01:52;100426.56;;;13.47;85.33
28630;BME280;15817;42.130;24.762;2023-05-12T07:13:38;100427.91;;;13.92;82.33
28630;BME280;15817;42.130;24.762;2023-05-12T07:16:09;100423.47;;;13.88;81.96
28630;BME280;15817;42.130;24.762;2023-05-12T07:18:35;100415.41;;;13.94;82.27
28630;BME280;15817;42.130;24.762;2023-05-12T07:21:06;100415.34;;;13.97;82.02
28630;BME280;15817;42.130;24.762;2023-05-12T07:23:36;100424.13;;;14.09;82.08
28630;BME280;15817;42.130;24.762;2023-05-12T07:26:05;100424.94;;;14.16;80.51
28630;BME280;15817;42.130;24.762;2023-05-12T07:28:35;100422.28;;;14.14;79.56
28630;BME280;15817;42.130;24.762;2023-05-12T07:31:02;100432.91;;;14.19;77.39
28630;BME280;15817;42.130;24.762;2023-05-12T07:33:28;100429.41;;;14.16;76.10
28630;BME280;15817;42.130;24.762;2023-05-12T07:35:57;100428.53;;;14.13;77.22
28630;BME280;15817;42.130;24.762;2023-05-12T07:38:30;100428.56;;;14.12;76.03
28630;BME280;15817;42.130;24.762;2023-05-12T07:41:04;100437.38;;;14.20;76.01
28630;BME280;15817;42.130;24.762;2023-05-12T07:47:11;100419.44;;;14.30;77.01
28630;BME280;15817;42.130;24.762;2023-05-12T07:49:56;100424.69;;;14.42;72.48
28630;BME280;15817;42.130;24.762;2023-05-12T07:53:18;100415.47;;;14.63;72.27
28630;BME280;15817;42.130;24.762;2023-05-12T07:55:48;100407.19;;;14.78;71.25
28630;BME280;15817;42.130;24.762;2023-05-12T07:58:30;100418.72;;;14.84;70.81
28630;BME280;15817;42.130;24.762;2023-05-12T08:01:12;100417.13;;;14.73;68.47
28630;BME280;15817;42.130;24.762;2023-05-12T08:03:47;100414.41;;;14.76;68.53
28630;BME280;15817;42.130;24.762;2023-05-12T08:06:19;100409.81;;;14.82;68.69
28630;BME280;15817;42.130;24.762;2023-05-12T08:08:44;100415.16;;;14.85;70.20
28630;BME280;15817;42.130;24.762;2023-05-12T08:11:10;100421.25;;;14.95;70.11
28630;BME280;15817;42.130;24.762;2023-05-12T08:13:37;100426.19;;;15.23;70.19
28630;BME280;15817;42.130;24.762;2023-05-12T08:16:44;100411.38;;;15.55;67.84
28630;BME280;15817;42.130;24.762;2023-05-12T08:20:05;100425.84;;;15.44;67.05
28630;BME280;15817;42.130;24.762;2023-05-12T08:22:31;100423.94;;;15.50;67.10
28630;BME280;15817;42.130;24.762;2023-05-12T08:24:59;100419.28;;;15.63;66.62
28630;BME280;15817;42.130;24.762;2023-05-12T08:27:30;100419.69;;;15.37;66.92
28630;BME280;15817;42.130;24.762;2023-05-12T08:33:02;100400.44;;;15.68;65.92
28630;BME280;15817;42.130;24.762;2023-05-12T08:36:08;100413.81;;;16.58;62.49
28630;BME280;15817;42.130;24.762;2023-05-12T08:38:34;100420.84;;;17.06;60.28
28630;BME280;15817;42.130;24.762;2023-05-12T08:41:17;100409.22;;;17.41;59.90
28630;BME280;15817;42.130;24.762;2023-05-12T08:44:05;100416.75;;;17.62;58.84
28630;BME280;15817;42.130;24.762;2023-05-12T08:46:42;100411.47;;;17.57;57.21
28630;BME280;15817;42.130;24.762;2023-05-12T08:49:13;100420.91;;;17.75;56.09
28630;BME280;15817;42.130;24.762;2023-05-12T08:51:47;100410.88;;;17.82;55.80
28630;BME280;15817;42.130;24.762;2023-05-12T08:54:17;100416.13;;;17.86;54.42
28630;BME280;15817;42.130;24.762;2023-05-12T08:57:00;100410.28;;;18.03;53.30
28630;BME280;15817;42.130;24.762;2023-05-12T08:59:29;100414.94;;;18.29;54.38
28630;BME280;15817;42.130;24.762;2023-05-12T09:02:41;100409.47;;;18.32;52.69
28630;BME280;15817;42.130;24.762;2023-05-12T09:48:14;100392.00;;;18.76;49.84
28630;BME280;15817;42.130;24.762;2023-05-12T09:50:50;100396.75;;;18.96;49.96
28630;BME280;15817;42.130;24.762;2023-05-12T09:53:19;100379.88;;;18.30;50.04
28630;BME280;15817;42.130;24.762;2023-05-12T09:55:48;100382.34;;;18.69;51.84
28630;BME280;15817;42.130;24.762;2023-05-12T09:58:15;100392.44;;;19.18;49.26
28630;BME280;15817;42.130;24.762;2023-05-12T10:03:54;100376.03;;;18.39;50.18
28630;BME280;15817;42.130;24.762;2023-05-12T10:06:30;100381.13;;;18.19;50.11
28630;BME280;15817;42.130;24.762;2023-05-12T10:09:19;100384.59;;;18.83;47.96
28630;BME280;15817;42.130;24.762;2023-05-12T10:12:04;100391.53;;;19.45;46.76
28630;BME280;15817;42.130;24.762;2023-05-12T10:14:30;100374.63;;;19.67;44.51
28630;BME280;15817;42.130;24.762;2023-05-12T10:16:58;100380.25;;;19.85;45.52
28630;BME280;15817;42.130;24.762;2023-05-12T10:19:34;100380.34;;;19.30;46.90
28630;BME280;15817;42.130;24.762;2023-05-12T10:22:09;100370.06;;;18.88;47.82
28630;BME280;15817;42.130;24.762;2023-05-12T10:24:38;100367.69;;;18.46;47.76
28630;BME280;15817;42.130;24.762;2023-05-12T10:27:07;100375.84;;;19.30;47.20
28630;BME280;15817;42.130;24.762;2023-05-12T10:29:36;100370.75;;;19.74;46.65
28630;BME280;15817;42.130;24.762;2023-05-12T10:32:03;100381.63;;;19.97;46.43
28630;BME280;15817;42.130;24.762;2023-05-12T10:34:33;100362.72;;;19.46;46.78
28630;BME280;15817;42.130;24.762;2023-05-12T10:37:06;100367.28;;;19.17;46.84
28630;BME280;15817;42.130;24.762;2023-05-12T10:39:36;100364.34;;;19.78;45.58
28630;BME280;15817;42.130;24.762;2023-05-12T10:42:07;100377.50;;;19.87;44.88
28630;BME280;15817;42.130;24.762;2023-05-12T10:44:52;100361.53;;;20.06;44.71
28630;BME280;15817;42.130;24.762;2023-05-12T10:47:18;100361.28;;;19.87;45.76
28630;BME280;15817;42.130;24.762;2023-05-12T10:49:55;100352.28;;;20.11;45.26
28630;BME280;15817;42.130;24.762;2023-05-12T10:52:24;100345.13;;;20.35;45.10
28630;BME280;15817;42.130;24.762;2023-05-12T10:54:58;100354.00;;;20.39;44.85
28630;BME280;15817;42.130;24.762;2023-05-12T10:57:24;100355.50;;;19.98;44.27
28630;BME280;15817;42.130;24.762;2023-05-12T10:59:56;100358.03;;;20.02;45.23
28630;BME280;15817;42.130;24.762;2023-05-12T11:02:25;100347.16;;;20.29;45.02
28630;BME280;15817;42.130;24.762;2023-05-12T11:05:02;100345.44;;;20.26;44.90
28630;BME280;15817;42.130;24.762;2023-05-12T11:07:32;100342.63;;;20.29;44.96
28630;BME280;15817;42.130;24.762;2023-05-12T11:10:07;100344.75;;;20.44;43.91
28630;BME280;15817;42.130;24.762;2023-05-12T11:12:36;100344.25;;;20.33;43.73
28630;BME280;15817;42.130;24.762;2023-05-12T11:15:03;100329.22;;;20.51;43.54
28630;BME280;15817;42.130;24.762;2023-05-12T11:17:29;100337.47;;;20.46;44.01
28630;BME280;15817;42.130;24.762;2023-05-12T11:19:58;100337.22;;;20.76;43.41
28630;BME280;15817;42.130;24.762;2023-05-12T11:22:25;100338.28;;;20.72;43.51
28630;BME280;15817;42.130;24.762;2023-05-12T11:24:51;100347.09;;;20.77;43.28
28630;BME280;15817;42.130;24.762;2023-05-12T11:27:21;100337.69;;;20.87;43.01
28630;BME280;15817;42.130;24.762;2023-05-12T11:29:58;100344.03;;;21.08;42.03
28630;BME280;15817;42.130;24.762;2023-05-12T11:32:25;100339.72;;;21.02;42.23
28630;BME280;15817;42.130;24.762;2023-05-12T11:34:50;100345.47;;;20.94;42.05
28630;BME280;15817;42.130;24.762;2023-05-12T11:37:17;100341.31;;;20.86;41.66
28630;BME280;15817;42.130;24.762;2023-05-12T11:39:53;100330.00;;;20.76;42.48
28630;BME280;15817;42.130;24.762;2023-05-12T11:42:19;100335.09;;;20.84;41.94
28630;BME280;15817;42.130;24.762;2023-05-12T11:44:51;100315.59;;;20.76;42.25
28630;BME280;15817;42.130;24.762;2023-05-12T11:47:19;100322.56;;;20.81;41.83
28630;BME280;15817;42.130;24.762;2023-05-12T11:49:52;100330.06;;;20.96;41.63
28630;BME280;15817;42.130;24.762;2023-05-12T11:52:30;100319.25;;;20.96;41.19
28630;BME280;15817;42.130;24.762;2023-05-12T11:55:04;100320.28;;;21.14;41.13
28630;BME280;15817;42.130;24.762;2023-05-12T11:57:34;100323.06;;;20.91;41.96
28630;BME280;15817;42.130;24.762;2023-05-12T12:00:07;100322.50;;;20.83;41.93
28630;BME280;15817;42.130;24.762;2023-05-12T12:02:34;100321.34;;;20.67;42.84
28630;BME280;15817;42.130;24.762;2023-05-12T12:05:01;100315.66;;;20.74;42.92
28630;BME280;15817;42.130;24.762;2023-05-12T12:07:32;100323.28;;;20.86;42.54
28630;BME280;15817;42.130;24.762;2023-05-12T12:10:12;100315.31;;;21.04;42.24
28630;BME280;15817;42.130;24.762;2023-05-12T12:12:39;100300.75;;;21.08;42.04
28630;BME280;15817;42.130;24.762;2023-05-12T12:15:05;100316.28;;;21.24;42.59
28630;BME280;15817;42.130;24.762;2023-05-12T12:17:31;100316.53;;;20.96;42.08
28630;BME280;15817;42.130;24.762;2023-05-12T12:19:57;100311.22;;;20.27;43.18
28630;BME280;15817;42.130;24.762;2023-05-12T12:22:23;100321.50;;;20.17;42.77
28630;BME280;15817;42.130;24.762;2023-05-12T12:24:49;100317.44;;;20.05;42.90
28630;BME280;15817;42.130;24.762;2023-05-12T12:27:15;100309.69;;;20.43;43.29
28630;BME280;15817;42.130;24.762;2023-05-12T12:29:41;100301.59;;;20.43;43.00
28630;BME280;15817;42.130;24.762;2023-05-12T12:32:07;100291.97;;;20.36;43.50
28630;BME280;15817;42.130;24.762;2023-05-12T12:34:39;100300.34;;;20.05;44.10
28630;BME280;15817;42.130;24.762;2023-05-12T12:37:05;100301.94;;;19.85;42.18
28630;BME280;15817;42.130;24.762;2023-05-12T12:39:35;100297.03;;;19.97;42.54
28630;BME280;15817;42.130;24.762;2023-05-12T12:42:20;100296.31;;;20.40;42.53
28630;BME280;15817;42.130;24.762;2023-05-12T12:44:49;100289.50;;;20.53;42.21
28630;BME280;15817;42.130;24.762;2023-05-12T12:47:19;100277.38;;;20.63;41.51
28630;BME280;15817;42.130;24.762;2023-05-12T12:49:55;100274.94;;;20.77;41.83
28630;BME280;15817;42.130;24.762;2023-05-12T12:52:21;100280.31;;;20.79;42.51
28630;BME280;15817;42.130;24.762;2023-05-12T12:54:47;100270.88;;;20.89;43.14
28630;BME280;15817;42.130;24.762;2023-05-12T12:57:16;100279.56;;;20.97;42.88
28630;BME280;15817;42.130;24.762;2023-05-12T12:59:46;100267.66;;;21.01;42.47
28630;BME280;15817;42.130;24.762;2023-05-12T13:02:22;100280.66;;;21.13;42.46
28630;BME280;15817;42.130;24.762;2023-05-12T13:04:47;100283.66;;;20.85;42.03
28630;BME280;15817;42.130;24.762;2023-05-12T13:07:13;100273.81;;;20.39;43.09
28630;BME280;15817;42.130;24.762;2023-05-12T13:09:41;100271.97;;;20.63;43.19
28630;BME280;15817;42.130;24.762;2023-05-12T13:12:07;100264.69;;;20.65;42.73
28630;BME280;15817;42.130;24.762;2023-05-12T13:14:33;100265.63;;;20.64;42.63
28630;BME280;15817;42.130;24.762;2023-05-12T13:17:02;100273.56;;;20.67;43.22
28630;BME280;15817;42.130;24.762;2023-05-12T13:19:33;100278.91;;;20.47;42.16
28630;BME280;15817;42.130;24.762;2023-05-12T13:22:08;100271.31;;;20.56;43.00
28630;BME280;15817;42.130;24.762;2023-05-12T13:24:34;100271.22;;;20.36;42.86
28630;BME280;15817;42.130;24.762;2023-05-12T13:27:01;100280.78;;;20.21;42.75
28630;BME280;15817;42.130;24.762;2023-05-12T13:29:44;100269.75;;;20.04;43.60
28630;BME280;15817;42.130;24.762;2023-05-12T13:32:13;100267.41;;;19.95;44.33
28630;BME280;15817;42.130;24.762;2023-05-12T13:34:46;100265.34;;;19.78;44.08
28630;BME280;15817;42.130;24.762;2023-05-12T13:37:12;100260.19;;;19.72;44.91
28630;BME280;15817;42.130;24.762;2023-05-12T13:39:41;100264.50;;;19.76;44.88
28630;BME280;15817;42.130;24.762;2023-05-12T13:42:18;100273.78;;;19.69;43.90
28630;BME280;15817;42.130;24.762;2023-05-12T13:44:59;100259.44;;;19.67;44.27
28630;BME280;15817;42.130;24.762;2023-05-12T13:47:28;100265.78;;;19.66;44.42
28630;BME280;15817;42.130;24.762;2023-05-12T13:50:00;100263.13;;;19.65;44.75
28630;BME280;15817;42.130;24.762;2023-05-12T13:52:35;100269.47;;;19.64;44.52
28630;BME280;15817;42.130;24.762;2023-05-12T13:55:03;100271.41;;;19.60;45.39
28630;BME280;15817;42.130;24.762;2023-05-12T13:57:31;100276.03;;;19.57;45.71
28630;BME280;15817;42.130;24.762;2023-05-12T13:59:57;100267.38;;;19.47;46.42
28630;BME280;15817;42.130;24.762;2023-05-12T14:02:30;100270.44;;;19.36;46.10
28630;BME280;15817;42.130;24.762;2023-05-12T14:05:06;100271.19;;;19.40;46.14
28630;BME280;15817;42.130;24.762;2023-05-12T14:07:33;100271.16;;;19.41;46.52
28630;BME280;15817;42.130;24.762;2023-05-12T14:09:59;100270.06;;;19.47;46.57
28630;BME280;15817;42.130;24.762;2023-05-12T14:12:28;100271.38;;;19.35;46.14
28630;BME280;15817;42.130;24.762;2023-05-12T14:14:56;100275.94;;;19.33;46.38
28630;BME280;15817;42.130;24.762;2023-05-12T14:17:24;100270.22;;;19.42;45.98
28630;BME280;15817;42.130;24.762;2023-05-12T14:20:02;100278.34;;;19.41;45.51
28630;BME280;15817;42.130;24.762;2023-05-12T14:22:34;100271.25;;;19.38;45.37
28630;BME280;15817;42.130;24.762;2023-05-12T14:25:05;100275.44;;;19.48;45.92